createdAt,value
2019-05-05T00:01:50.746Z,7.70
2019-05-05T00:04:21.824Z,6.30
2019-05-05T00:06:51.186Z,6.73
2019-05-05T00:09:21.147Z,7.07
2019-05-05T00:12:08.639Z,6.43
2019-05-05T00:14:44.232Z,5.43
2019-05-05T00:17:18.486Z,7.47
2019-05-05T00:19:48.080Z,7.90
2019-05-05T00:22:17.754Z,7.87
2019-05-05T00:24:47.368Z,5.77
2019-05-05T00:27:16.816Z,8.50
2019-05-05T00:29:46.256Z,6.63
2019-05-05T00:32:16.769Z,5.93
2019-05-05T00:34:47.345Z,5.30
2019-05-05T00:37:16.787Z,5.83
2019-05-05T00:39:46.218Z,5.20
2019-05-05T00:42:15.750Z,5.67
2019-05-05T00:44:45.196Z,5.37
2019-05-05T00:47:25.314Z,5.73
2019-05-05T00:49:56.339Z,7.10
2019-05-05T00:52:25.916Z,5.07
2019-05-05T00:54:55.702Z,5.63
2019-05-05T00:57:25.237Z,9.67
2019-05-05T00:59:54.638Z,6.90
2019-05-05T01:02:28.486Z,6.97
2019-05-05T01:05:08.438Z,5.33
2019-05-05T01:07:37.868Z,7.00
2019-05-05T01:10:07.851Z,7.77
2019-05-05T01:12:38.047Z,5.87
2019-05-05T01:15:07.892Z,6.43
2019-05-05T01:17:37.252Z,6.17
2019-05-05T01:20:07.232Z,6.67
2019-05-05T01:22:36.728Z,7.17
2019-05-05T01:25:07.412Z,7.50
2019-05-05T01:27:36.902Z,7.70
2019-05-05T01:30:11.763Z,6.30
2019-05-05T01:32:44.495Z,5.63
2019-05-05T01:35:14.468Z,7.20
2019-05-05T01:37:46.810Z,5.40
2019-05-05T01:40:32.578Z,7.97
2019-05-05T01:43:02.193Z,5.23
2019-05-05T01:45:31.696Z,5.60
2019-05-05T01:48:01.258Z,5.33
2019-05-05T01:50:31.819Z,7.03
2019-05-05T01:53:01.262Z,6.57
2019-05-05T01:55:31.520Z,5.33
2019-05-05T01:58:01.216Z,5.70
2019-05-05T02:00:30.703Z,7.23
2019-05-05T02:03:00.040Z,6.60
2019-05-05T02:05:29.429Z,6.23
2019-05-05T02:08:00.009Z,6.93
2019-05-05T02:10:29.500Z,5.40
2019-05-05T02:12:58.923Z,6.60
2019-05-05T02:15:28.487Z,6.80
2019-05-05T02:17:58.096Z,5.80
2019-05-05T02:20:38.972Z,6.63
2019-05-05T02:23:09.205Z,5.53
2019-05-05T02:25:38.770Z,5.83
2019-05-05T02:28:09.422Z,7.37
2019-05-05T02:30:40.762Z,5.47
2019-05-05T02:33:11.912Z,6.10
2019-05-05T02:35:41.486Z,5.87
2019-05-05T02:38:10.974Z,6.97
2019-05-05T02:40:41.280Z,7.70
2019-05-05T02:43:10.862Z,6.17
2019-05-05T02:45:47.662Z,5.87
2019-05-05T02:48:18.437Z,5.87
2019-05-05T02:51:02.100Z,7.00
2019-05-05T02:53:36.703Z,6.67
2019-05-05T02:56:08.213Z,7.17
2019-05-05T02:58:38.981Z,6.33
2019-05-05T03:01:25.431Z,6.70
2019-05-05T03:03:55.699Z,6.90
2019-05-05T03:06:25.161Z,5.73
2019-05-05T03:08:56.334Z,6.20
2019-05-05T03:11:30.150Z,7.80
2019-05-05T03:14:04.058Z,7.83
2019-05-05T03:16:38.925Z,5.80
2019-05-05T03:19:10.389Z,7.43
2019-05-05T03:21:40.591Z,6.60
2019-05-05T03:24:10.961Z,7.63
2019-05-05T03:26:41.048Z,7.00
2019-05-05T03:29:13.821Z,8.40
2019-05-05T03:31:45.904Z,7.17
2019-05-05T03:34:16.385Z,8.07
2019-05-05T03:36:46.448Z,8.20
2019-05-05T03:39:20.796Z,7.63
2019-05-05T03:42:08.283Z,6.60
2019-05-05T03:44:39.424Z,6.87
2019-05-05T03:47:09.204Z,9.40
2019-05-05T03:49:38.767Z,6.67
2019-05-05T03:52:08.679Z,5.67
2019-05-05T03:54:38.396Z,6.50
2019-05-05T03:57:08.281Z,6.90
2019-05-05T03:59:39.725Z,6.20
2019-05-05T04:02:29.869Z,8.67
2019-05-05T04:05:16.374Z,6.17
2019-05-05T04:07:46.451Z,6.33
2019-05-05T04:10:16.043Z,6.17
2019-05-05T04:12:45.556Z,11.37
2019-05-05T04:15:15.156Z,6.90
2019-05-05T04:20:58.011Z,6.20
2019-05-05T04:23:27.454Z,7.10
2019-05-05T04:25:56.888Z,7.53
2019-05-05T04:28:26.331Z,7.70
2019-05-05T04:30:55.767Z,7.57
2019-05-05T04:33:25.213Z,7.83
2019-05-05T04:35:54.677Z,8.23
2019-05-05T04:38:25.066Z,8.37
2019-05-05T04:40:54.486Z,8.97
2019-05-05T04:43:24.625Z,9.57
2019-05-05T04:45:54.216Z,6.77
2019-05-05T04:48:31.231Z,8.47
2019-05-05T04:51:04.665Z,8.00
2019-05-05T04:53:35.228Z,9.33
2019-05-05T04:56:04.819Z,6.50
2019-05-05T04:58:34.256Z,7.10
2019-05-05T05:01:04.680Z,8.07
2019-05-05T05:03:45.001Z,8.47
2019-05-05T05:06:16.097Z,6.93
2019-05-05T05:08:45.533Z,5.00
2019-05-05T05:11:14.980Z,4.77
2019-05-05T05:13:44.436Z,4.67
2019-05-05T05:16:14.994Z,5.47
2019-05-05T05:18:45.544Z,5.73
2019-05-05T05:21:17.741Z,4.13
2019-05-05T05:23:47.163Z,6.73
2019-05-05T05:26:16.591Z,4.75
2019-05-05T05:28:46.043Z,4.92
2019-05-05T05:31:15.488Z,5.08
2019-05-05T05:33:44.945Z,6.62
2019-05-05T05:36:14.531Z,5.47
2019-05-05T05:38:45.710Z,5.45
2019-05-05T05:41:19.711Z,3.90
2019-05-05T05:44:03.600Z,5.17
2019-05-05T05:46:46.705Z,5.55
2019-05-05T05:49:17.710Z,3.60
2019-05-05T05:51:47.217Z,3.47
2019-05-05T05:54:18.294Z,3.62
2019-05-05T05:56:49.291Z,4.78
2019-05-05T05:59:18.805Z,2.35
2019-05-05T06:01:48.326Z,3.52
2019-05-05T06:04:17.838Z,4.62
2019-05-05T06:06:47.285Z,4.22
2019-05-05T06:09:16.730Z,3.45
2019-05-05T06:11:46.171Z,2.55
2019-05-05T06:14:15.703Z,5.20
2019-05-05T06:16:45.199Z,3.93
2019-05-05T06:19:14.605Z,2.67
2019-05-05T06:21:44.129Z,2.67
2019-05-05T06:24:14.571Z,4.43
2019-05-05T06:26:44.658Z,2.80
2019-05-05T06:29:14.552Z,3.42
2019-05-05T06:31:44.801Z,3.52
2019-05-05T06:34:14.331Z,3.90
2019-05-05T06:36:44.466Z,3.77
2019-05-05T06:39:14.067Z,2.62
2019-05-05T06:41:45.161Z,5.58
2019-05-05T06:44:22.119Z,3.12
2019-05-05T06:46:59.158Z,5.75
2019-05-05T06:49:31.131Z,3.85
2019-05-05T06:51:59.981Z,5.05
2019-05-05T06:54:29.409Z,4.50
2019-05-05T06:56:59.001Z,3.47
2019-05-05T06:59:28.437Z,4.65
2019-05-05T07:01:57.898Z,5.12
2019-05-05T07:04:27.338Z,5.10
2019-05-05T07:06:57.241Z,6.20
2019-05-05T07:09:26.717Z,7.90
2019-05-05T07:11:56.155Z,5.40
2019-05-05T07:14:25.689Z,7.42
2019-05-05T07:16:55.061Z,6.70
2019-05-05T07:19:25.421Z,7.85
2019-05-05T07:21:54.926Z,9.45
2019-05-05T07:24:25.630Z,8.35
2019-05-05T07:26:54.967Z,7.78
2019-05-05T07:29:24.525Z,6.08
2019-05-05T07:31:54.504Z,6.40
2019-05-05T07:34:25.703Z,7.08
2019-05-05T07:36:55.192Z,9.45
2019-05-05T07:39:25.912Z,9.28
2019-05-05T07:41:55.340Z,9.40
2019-05-05T07:44:29.312Z,10.85
2019-05-05T07:46:55.768Z,9.08
2019-05-05T07:49:25.223Z,10.08
2019-05-05T07:51:54.916Z,10.82
2019-05-05T07:54:24.493Z,11.48
2019-05-05T07:56:54.052Z,8.58
2019-05-05T07:59:23.908Z,11.73
2019-05-05T08:01:54.746Z,13.05
2019-05-05T08:04:24.460Z,11.30
2019-05-05T08:06:56.737Z,12.25
2019-05-05T08:09:26.193Z,14.10
2019-05-05T08:11:55.644Z,13.25
2019-05-05T08:14:25.101Z,15.38
2019-05-05T08:16:56.258Z,16.25
2019-05-05T08:19:34.705Z,13.45
2019-05-05T08:22:04.320Z,18.12
2019-05-05T08:24:51.496Z,13.43
2019-05-05T08:27:24.900Z,13.72
2019-05-05T08:29:57.894Z,20.70
2019-05-05T08:32:32.753Z,12.40
2019-05-05T08:35:04.324Z,15.28
2019-05-05T08:37:34.303Z,22.22
2019-05-05T08:40:06.782Z,16.43
2019-05-05T08:42:36.364Z,14.68
2019-05-05T08:45:06.989Z,16.52
2019-05-05T08:47:36.440Z,14.13
2019-05-05T08:50:07.627Z,12.00
2019-05-05T08:52:37.144Z,12.98
2019-05-05T08:55:06.748Z,12.30
2019-05-05T08:57:36.572Z,13.90
2019-05-05T09:00:09.242Z,13.03
2019-05-05T09:02:38.818Z,13.78
2019-05-05T09:05:08.535Z,10.33
2019-05-05T09:07:38.038Z,12.18
2019-05-05T09:10:07.646Z,11.27
2019-05-05T09:12:37.147Z,17.23
2019-05-05T09:15:07.934Z,13.78
2019-05-05T09:17:37.436Z,14.30
2019-05-05T09:20:07.238Z,17.83
2019-05-05T09:22:36.689Z,9.97
2019-05-05T09:25:24.984Z,10.67
2019-05-05T09:27:58.859Z,11.80
2019-05-05T09:30:34.319Z,12.37
2019-05-05T09:33:03.942Z,10.32
2019-05-05T09:35:34.254Z,11.23
2019-05-05T09:38:04.202Z,8.47
2019-05-05T09:40:43.807Z,10.80
2019-05-05T09:43:14.735Z,9.20
2019-05-05T09:45:44.333Z,9.13
2019-05-05T09:48:15.210Z,11.33
2019-05-05T09:50:45.540Z,14.17
2019-05-05T09:53:15.505Z,14.50
2019-05-05T09:55:45.516Z,9.55
2019-05-05T09:58:15.550Z,15.65
2019-05-05T10:00:46.808Z,10.23
2019-05-05T10:03:16.321Z,10.00
2019-05-05T10:05:46.012Z,10.67
2019-05-05T10:08:16.603Z,9.08
2019-05-05T10:10:46.204Z,7.53
2019-05-05T10:13:16.267Z,11.35
2019-05-05T10:15:46.712Z,10.63
2019-05-05T10:18:16.476Z,11.08
2019-05-05T10:20:46.552Z,12.07
2019-05-05T10:23:16.808Z,12.06
2019-05-05T10:25:48.538Z,10.08
2019-05-05T10:28:18.609Z,11.78
2019-05-05T10:30:49.082Z,11.80
2019-05-05T10:33:18.522Z,11.35
2019-05-05T10:35:47.972Z,8.13
2019-05-05T10:38:17.618Z,10.43
2019-05-05T10:40:48.477Z,17.25
2019-05-05T10:43:17.910Z,10.72
2019-05-05T10:45:47.926Z,14.35
2019-05-05T10:48:17.905Z,8.15
2019-05-05T10:50:48.070Z,12.43
2019-05-05T10:53:18.293Z,13.22
2019-05-05T10:55:48.449Z,12.80
2019-05-05T10:58:19.024Z,12.58
2019-05-05T11:00:51.615Z,10.75
2019-05-05T11:03:21.187Z,9.15
2019-05-05T11:05:50.804Z,10.38
2019-05-05T11:08:21.320Z,12.23
2019-05-05T11:10:51.538Z,9.70
2019-05-05T11:13:21.122Z,9.13
2019-05-05T11:15:50.568Z,11.05
2019-05-05T11:18:20.186Z,12.13
2019-05-05T11:20:49.773Z,11.57
2019-05-05T11:23:19.626Z,9.48
2019-05-05T11:25:50.390Z,12.40
2019-05-05T11:28:20.845Z,12.30
2019-05-05T11:30:50.448Z,8.90
2019-05-05T11:33:37.716Z,9.13
2019-05-05T11:36:17.918Z,7.35
2019-05-05T11:38:47.622Z,9.05
2019-05-05T11:41:17.090Z,9.00
2019-05-05T11:43:46.560Z,10.63
2019-05-05T11:46:16.166Z,8.38
2019-05-05T11:48:47.168Z,8.33
2019-05-05T11:51:16.753Z,12.55
2019-05-05T11:53:46.290Z,8.88
2019-05-05T11:56:15.736Z,7.05
2019-05-05T11:58:46.232Z,11.88
2019-05-05T12:01:17.032Z,9.48
2019-05-05T12:03:46.644Z,10.88
2019-05-05T12:06:16.155Z,8.18
2019-05-05T12:08:46.105Z,8.88
2019-05-05T12:11:16.916Z,11.25
2019-05-05T12:13:46.506Z,11.93
2019-05-05T12:16:17.920Z,10.00
2019-05-05T12:18:47.389Z,11.95
2019-05-05T12:21:16.902Z,10.30
2019-05-05T12:23:46.371Z,9.00
2019-05-05T12:26:17.465Z,12.47
2019-05-05T12:28:48.682Z,7.50
2019-05-05T12:31:27.466Z,13.53
2019-05-05T12:33:56.994Z,10.63
2019-05-05T12:36:26.450Z,7.97
2019-05-05T12:38:55.985Z,8.03
2019-05-05T12:41:25.504Z,9.33
2019-05-05T12:43:55.159Z,7.33
2019-05-05T12:46:26.296Z,6.97
2019-05-05T12:48:59.037Z,8.08
2019-05-05T12:51:28.560Z,10.63
2019-05-05T12:53:58.418Z,10.03
2019-05-05T12:56:28.006Z,9.25
2019-05-05T12:58:57.540Z,9.45
2019-05-05T13:01:31.103Z,8.00
2019-05-05T13:04:03.451Z,10.55
2019-05-05T13:06:34.583Z,8.58
2019-05-05T13:09:06.279Z,7.95
2019-05-05T13:11:36.591Z,9.80
2019-05-05T13:14:07.791Z,7.72
2019-05-05T13:16:37.294Z,7.30
2019-05-05T13:19:09.606Z,6.30
2019-05-05T13:21:57.119Z,7.80
2019-05-05T13:24:44.502Z,6.92
2019-05-05T13:27:19.366Z,8.10
2019-05-05T13:29:47.664Z,7.40
2019-05-05T13:32:17.241Z,8.35
2019-05-05T13:34:47.870Z,6.10
2019-05-05T13:37:17.535Z,7.80
2019-05-05T13:39:47.072Z,7.75
2019-05-05T13:42:16.529Z,5.30
2019-05-05T13:44:50.502Z,7.00
2019-05-05T13:47:23.821Z,8.93
2019-05-05T13:49:54.274Z,9.33
2019-05-05T13:52:24.410Z,7.35
2019-05-05T13:54:54.436Z,8.85
2019-05-05T13:57:24.593Z,7.63
2019-05-05T13:59:54.632Z,6.90
2019-05-05T14:02:24.567Z,7.87
2019-05-05T14:04:54.312Z,9.07
2019-05-05T14:07:24.075Z,7.30
2019-05-05T14:09:54.998Z,7.30
2019-05-05T14:12:24.621Z,8.35
2019-05-05T14:14:54.679Z,9.40
2019-05-05T14:17:24.637Z,8.57
2019-05-05T14:20:04.157Z,12.78
2019-05-05T14:22:26.063Z,10.13
2019-05-05T14:24:57.182Z,9.78
2019-05-05T14:27:27.562Z,11.33
2019-05-05T14:30:05.151Z,8.70
2019-05-05T14:32:36.418Z,6.77
2019-05-05T14:35:24.633Z,13.98
2019-05-05T14:38:01.476Z,7.33
2019-05-05T14:40:31.063Z,11.43
2019-05-05T14:43:02.197Z,11.40
2019-05-05T14:45:33.999Z,12.17
2019-05-05T14:48:05.011Z,10.20
2019-05-05T14:50:34.770Z,10.63
2019-05-05T14:53:04.609Z,10.82
2019-05-05T14:55:34.684Z,12.47
2019-05-05T14:58:04.253Z,9.17
2019-05-05T15:00:35.950Z,13.07
2019-05-05T15:03:05.577Z,11.23
2019-05-05T15:05:45.476Z,10.27
2019-05-05T15:08:16.974Z,12.33
2019-05-05T15:11:03.525Z,8.53
2019-05-05T15:13:33.829Z,11.78
2019-05-05T15:16:05.487Z,11.17
2019-05-05T15:18:35.106Z,6.20
2019-05-05T15:21:04.826Z,7.80
2019-05-05T15:23:35.875Z,7.97
2019-05-05T15:26:05.455Z,8.30
2019-05-05T15:28:36.106Z,9.37
2019-05-05T15:31:05.605Z,7.77
2019-05-05T15:33:35.060Z,6.20
2019-05-05T15:36:04.640Z,10.88
2019-05-05T15:38:35.563Z,9.20
2019-05-05T15:41:06.167Z,9.07
2019-05-05T15:43:36.802Z,7.50
2019-05-05T15:46:06.330Z,6.78
2019-05-05T15:48:35.900Z,7.57
2019-05-05T15:51:06.861Z,6.20
2019-05-05T15:53:36.363Z,6.40
2019-05-05T15:56:06.063Z,7.43
2019-05-05T15:58:36.669Z,6.23
2019-05-05T16:01:07.759Z,6.20
2019-05-05T16:03:37.229Z,7.57
2019-05-05T16:06:06.682Z,8.00
2019-05-05T16:08:36.142Z,7.15
2019-05-05T16:11:05.671Z,6.62
2019-05-05T16:13:35.431Z,6.80
2019-05-05T16:16:17.196Z,7.50
2019-05-05T16:19:18.351Z,9.50
2019-05-05T16:21:56.751Z,8.43
2019-05-05T16:24:44.493Z,7.03
2019-05-05T16:27:28.165Z,7.70
2019-05-05T16:30:15.102Z,8.67
2019-05-05T16:33:01.371Z,8.63
2019-05-05T16:35:50.297Z,8.67
2019-05-05T16:38:31.963Z,9.57
2019-05-05T16:41:04.259Z,7.07
2019-05-05T16:43:33.834Z,7.63
2019-05-05T16:46:04.248Z,9.63
2019-05-05T16:48:34.679Z,9.93
2019-05-05T16:51:06.194Z,8.20
2019-05-05T16:53:38.804Z,12.63
2019-05-05T16:56:13.811Z,10.57
2019-05-05T16:58:45.870Z,11.47
2019-05-05T17:01:17.441Z,8.90
2019-05-05T17:03:47.014Z,7.00
2019-05-05T17:06:16.645Z,7.60
2019-05-05T17:08:46.890Z,7.60
2019-05-05T17:11:16.444Z,8.40
2019-05-05T17:13:54.517Z,5.67
2019-05-05T17:16:35.001Z,9.07
2019-05-05T17:19:08.499Z,5.63
2019-05-05T17:21:40.909Z,6.87
2019-05-05T17:24:14.060Z,10.00
2019-05-05T17:26:45.763Z,5.40
2019-05-05T17:29:15.291Z,6.80
2019-05-05T17:31:46.659Z,7.37
2019-05-05T17:34:16.175Z,8.07
2019-05-05T17:36:47.325Z,6.90
2019-05-05T17:39:17.172Z,7.37
2019-05-05T17:41:48.575Z,8.57
2019-05-05T17:44:24.217Z,9.17
2019-05-05T17:46:55.329Z,8.43
2019-05-05T17:49:27.062Z,7.03
2019-05-05T17:52:03.690Z,12.70
2019-05-05T17:54:36.171Z,9.43
2019-05-05T17:57:05.759Z,7.87
2019-05-05T17:59:36.616Z,8.00
2019-05-05T18:02:08.305Z,9.73
2019-05-05T18:04:38.742Z,9.10
2019-05-05T18:07:15.382Z,8.83
2019-05-05T18:09:58.513Z,8.53
2019-05-05T18:12:47.229Z,10.47
2019-05-05T18:15:34.891Z,11.67
2019-05-05T18:18:06.579Z,10.37
2019-05-05T18:20:37.987Z,8.20
2019-05-05T18:23:08.260Z,6.77
2019-05-05T18:25:37.701Z,9.83
2019-05-05T18:28:16.943Z,6.97
2019-05-05T18:30:44.514Z,7.67
2019-05-05T18:33:13.996Z,12.67
2019-05-05T18:35:46.226Z,8.60
2019-05-05T18:38:17.148Z,9.13
2019-05-05T18:40:47.537Z,5.63
2019-05-05T18:43:18.612Z,8.40
2019-05-05T18:45:53.757Z,8.65
2019-05-05T18:51:36.784Z,7.37
2019-05-05T18:54:28.744Z,9.53
2019-05-05T18:57:24.499Z,8.70
2019-05-05T19:00:06.404Z,10.60
2019-05-05T19:03:09.305Z,10.75
2019-05-05T19:05:50.279Z,11.53
2019-05-05T19:08:37.886Z,10.00
2019-05-05T19:11:24.572Z,13.87
2019-05-05T19:14:02.834Z,8.73
2019-05-05T19:16:34.647Z,8.47
2019-05-05T19:19:04.796Z,9.30
2019-05-05T19:21:36.200Z,7.57
2019-05-05T19:24:05.664Z,7.57
2019-05-05T19:26:35.288Z,8.20
2019-05-05T19:29:06.524Z,11.33
2019-05-05T19:31:36.648Z,8.37
2019-05-05T19:34:06.323Z,6.37
2019-05-05T19:36:35.818Z,10.30
2019-05-05T19:39:08.065Z,6.07
2019-05-05T19:41:39.192Z,10.07
2019-05-05T19:44:08.804Z,6.47
2019-05-05T19:46:51.555Z,9.30
2019-05-05T19:49:24.174Z,10.03
2019-05-05T19:51:54.216Z,7.33
2019-05-05T19:54:24.984Z,6.50
2019-05-05T19:56:57.644Z,7.23
2019-05-05T19:59:27.192Z,8.07
2019-05-05T20:01:56.830Z,8.53
2019-05-05T20:04:26.292Z,5.37
2019-05-05T20:06:56.933Z,6.70
2019-05-05T20:09:26.518Z,12.50
2019-05-05T20:11:55.972Z,9.20
2019-05-05T20:14:25.567Z,8.60
2019-05-05T20:17:04.432Z,4.97
2019-05-05T20:19:36.015Z,6.70
2019-05-05T20:22:05.596Z,6.77
2019-05-05T20:24:35.122Z,10.20
2019-05-05T20:27:05.892Z,6.07
2019-05-05T20:29:37.516Z,8.60
2019-05-05T20:32:10.327Z,8.63
2019-05-05T20:34:50.358Z,4.73
2019-05-05T20:37:23.489Z,5.37
2019-05-05T20:39:54.502Z,6.97
2019-05-05T20:42:27.220Z,9.00
2019-05-05T20:44:58.989Z,7.10
2019-05-05T20:47:28.525Z,6.37
2019-05-05T20:49:58.055Z,8.93
2019-05-05T20:52:28.624Z,7.67
2019-05-05T20:54:58.187Z,6.33
2019-05-05T20:57:27.641Z,9.50
2019-05-05T20:59:57.238Z,5.23
2019-05-05T21:02:28.341Z,7.87
2019-05-05T21:04:57.856Z,8.83
2019-05-05T21:07:27.368Z,6.93
2019-05-05T21:09:56.908Z,11.17
2019-05-05T21:12:39.158Z,8.33
2019-05-05T21:14:57.494Z,9.50
2019-05-05T21:17:27.056Z,7.50
2019-05-05T21:19:56.608Z,8.00
2019-05-05T21:22:34.737Z,12.53
2019-05-05T21:25:08.452Z,8.10
2019-05-05T21:27:37.919Z,8.63
2019-05-05T21:30:07.500Z,10.97
2019-05-05T21:32:36.960Z,8.87
2019-05-05T21:35:06.502Z,11.33
2019-05-05T21:37:35.934Z,9.23
2019-05-05T21:40:06.506Z,11.50
2019-05-05T21:42:35.948Z,9.43
2019-05-05T21:45:06.573Z,10.57
2019-05-05T21:47:36.062Z,9.57
2019-05-05T21:50:07.970Z,12.30
2019-05-05T21:52:39.082Z,8.33
2019-05-05T21:55:16.086Z,10.23
2019-05-05T21:57:55.852Z,12.10
2019-05-05T22:00:34.718Z,9.93
2019-05-05T22:03:06.162Z,12.55
2019-05-05T22:05:36.284Z,8.60
2019-05-05T22:08:05.880Z,11.63
2019-05-05T22:10:35.300Z,12.47
2019-05-05T22:13:05.023Z,10.67
2019-05-05T22:15:35.805Z,8.50
2019-05-05T22:18:05.356Z,10.60
2019-05-05T22:20:46.256Z,10.70
2019-05-05T22:23:18.474Z,9.33
2019-05-05T22:25:47.966Z,13.57
2019-05-05T22:28:17.416Z,9.43
2019-05-05T22:30:47.338Z,11.73
2019-05-05T22:33:17.529Z,7.63
2019-05-05T22:35:46.978Z,8.40
2019-05-05T22:38:16.402Z,8.27
2019-05-05T22:40:45.906Z,10.87
2019-05-05T22:43:15.588Z,9.43
2019-05-05T22:45:45.147Z,12.97
2019-05-05T22:48:14.800Z,12.43
2019-05-05T22:50:44.235Z,8.23
2019-05-05T22:53:14.038Z,11.33
2019-05-05T22:55:45.033Z,10.07
2019-05-05T22:58:14.460Z,9.17
2019-05-05T23:00:44.030Z,13.78
2019-05-05T23:03:27.626Z,11.03
2019-05-05T23:06:01.480Z,10.83
2019-05-05T23:08:31.182Z,8.15
2019-05-05T23:11:00.750Z,9.53
2019-05-05T23:13:30.177Z,12.73
2019-05-05T23:16:07.318Z,7.37
2019-05-05T23:18:36.747Z,10.73
2019-05-05T23:21:10.884Z,10.27
2019-05-05T23:23:41.942Z,12.27
2019-05-05T23:26:13.929Z,13.20
2019-05-05T23:28:44.387Z,8.60
2019-05-05T23:31:16.180Z,9.93
2019-05-05T23:33:45.880Z,8.93
2019-05-05T23:36:16.252Z,8.23
2019-05-05T23:38:45.692Z,13.73
2019-05-05T23:41:15.182Z,7.93
2019-05-05T23:43:45.181Z,11.57
2019-05-05T23:46:14.619Z,9.77
2019-05-05T23:48:44.191Z,9.27
2019-05-05T23:51:14.049Z,10.37
2019-05-05T23:53:44.502Z,8.30
2019-05-05T23:56:13.930Z,8.33
2019-05-05T23:58:44.467Z,8.63
